createdAt,value
2018-10-01T00:02:25.000Z,6.47
2018-10-01T00:04:55.381Z,6.57
2018-10-01T00:07:25.912Z,6.30
2018-10-01T00:09:56.357Z,6.70
2018-10-01T00:12:26.870Z,6.93
2018-10-01T00:14:57.333Z,6.93
2018-10-01T00:17:27.749Z,6.77
2018-10-01T00:20:03.252Z,7.17
2018-10-01T00:22:38.668Z,6.67
2018-10-01T00:25:09.222Z,7.07
2018-10-01T00:27:39.595Z,6.93
2018-10-01T00:30:10.041Z,6.67
2018-10-01T00:32:40.432Z,7.37
2018-10-01T00:35:10.979Z,7.00
2018-10-01T00:37:47.913Z,6.30
2018-10-01T00:40:18.260Z,6.77
2018-10-01T00:42:48.848Z,6.67
2018-10-01T00:45:19.244Z,6.70
2018-10-01T00:47:49.692Z,6.73
2018-10-01T00:50:26.559Z,7.10
2018-10-01T00:52:56.932Z,6.67
2018-10-01T00:55:27.353Z,6.53
2018-10-01T00:57:57.862Z,6.23
2018-10-01T01:00:28.254Z,6.27
2018-10-01T01:02:58.736Z,7.07
2018-10-01T01:05:29.218Z,6.70
2018-10-01T01:07:59.636Z,7.03
2018-10-01T01:10:30.116Z,6.53
2018-10-01T01:13:00.496Z,6.50
2018-10-01T01:15:30.892Z,6.33
2018-10-01T01:18:01.386Z,6.23
2018-10-01T01:20:31.721Z,6.47
2018-10-01T01:23:02.218Z,6.40
2018-10-01T01:25:32.509Z,6.67
2018-10-01T01:28:02.888Z,5.57
2018-10-01T01:30:33.302Z,5.90
2018-10-01T01:33:03.613Z,6.10
2018-10-01T01:35:33.951Z,6.07
2018-10-01T01:38:04.334Z,5.90
2018-10-01T01:40:34.677Z,6.20
2018-10-01T01:43:08.037Z,6.20
2018-10-01T01:45:38.514Z,5.90
2018-10-01T01:48:09.050Z,5.87
2018-10-01T01:50:39.391Z,5.13
2018-10-01T01:53:11.186Z,5.97
2018-10-01T01:55:41.513Z,5.13
2018-10-01T01:58:11.916Z,4.67
2018-10-01T02:00:42.236Z,4.67
2018-10-01T02:03:12.825Z,5.47
2018-10-01T02:05:43.201Z,4.50
2018-10-01T02:08:13.612Z,4.60
2018-10-01T02:10:43.972Z,4.80
2018-10-01T02:13:14.401Z,4.60
2018-10-01T02:15:47.732Z,4.57
2018-10-01T02:18:18.141Z,3.97
2018-10-01T02:20:48.597Z,4.10
2018-10-01T02:23:19.101Z,3.77
2018-10-01T02:25:49.513Z,3.67
2018-10-01T02:28:19.892Z,3.60
2018-10-01T02:30:50.318Z,4.05
2018-10-01T02:33:20.701Z,3.60
2018-10-01T02:35:51.176Z,3.40
2018-10-01T02:38:21.759Z,4.27
2018-10-01T02:40:52.261Z,3.90
2018-10-01T02:43:22.712Z,3.50
2018-10-01T02:45:53.013Z,3.73
2018-10-01T02:48:23.441Z,3.57
2018-10-01T02:50:53.806Z,3.50
2018-10-01T02:53:29.309Z,3.20
2018-10-01T02:55:59.716Z,3.37
2018-10-01T02:58:30.072Z,3.13
2018-10-01T03:01:00.390Z,3.20
2018-10-01T03:03:30.833Z,3.10
2018-10-01T03:06:01.224Z,3.40
2018-10-01T03:08:31.643Z,3.30
2018-10-01T03:11:02.056Z,3.10
2018-10-01T03:13:32.435Z,3.20
2018-10-01T03:16:02.832Z,2.97
2018-10-01T03:18:33.432Z,2.80
2018-10-01T03:21:04.000Z,3.17
2018-10-01T03:23:34.504Z,3.20
2018-10-01T03:26:04.917Z,3.00
2018-10-01T03:28:35.291Z,2.97
2018-10-01T03:31:05.817Z,3.00
2018-10-01T03:33:36.188Z,3.30
2018-10-01T03:36:06.649Z,2.90
2018-10-01T03:38:43.521Z,2.90
2018-10-01T03:41:13.982Z,2.70
2018-10-01T03:43:44.432Z,2.97
2018-10-01T03:46:14.893Z,2.60
2018-10-01T03:48:45.604Z,2.53
2018-10-01T03:51:16.142Z,2.43
2018-10-01T03:53:46.552Z,2.77
2018-10-01T03:56:16.983Z,2.60
2018-10-01T03:58:47.433Z,2.60
2018-10-01T04:01:17.923Z,2.20
2018-10-01T04:03:48.276Z,2.27
2018-10-01T04:06:18.688Z,2.20
2018-10-01T04:08:49.110Z,2.37
2018-10-01T04:11:19.477Z,2.23
2018-10-01T04:13:49.818Z,2.37
2018-10-01T04:16:20.182Z,2.60
2018-10-01T04:18:50.584Z,2.10
2018-10-01T04:21:27.495Z,2.80
2018-10-01T04:23:57.853Z,2.33
2018-10-01T04:26:34.797Z,1.90
2018-10-01T04:29:06.056Z,2.52
2018-10-01T04:31:36.657Z,2.47
2018-10-01T04:34:07.189Z,2.50
2018-10-01T04:36:37.691Z,1.93
2018-10-01T04:39:13.272Z,2.07
2018-10-01T04:41:43.822Z,2.00
2018-10-01T04:44:14.346Z,2.43
2018-10-01T04:46:44.798Z,2.03
2018-10-01T04:49:15.216Z,2.53
2018-10-01T04:51:45.577Z,2.30
2018-10-01T04:54:16.104Z,2.27
2018-10-01T04:56:46.501Z,2.17
2018-10-01T04:59:16.938Z,2.67
2018-10-01T05:01:47.338Z,2.10
2018-10-01T05:04:21.800Z,2.57
2018-10-01T05:06:55.526Z,2.65
2018-10-01T05:09:25.973Z,2.50
2018-10-01T05:11:56.392Z,2.00
2018-10-01T05:14:28.448Z,2.13
2018-10-01T05:17:00.000Z,2.73
2018-10-01T05:19:31.486Z,2.20
2018-10-01T05:22:03.275Z,2.03
2018-10-01T05:24:36.194Z,2.60
2018-10-01T05:27:06.990Z,2.17
2018-10-01T05:29:44.408Z,2.10
2018-10-01T05:32:15.372Z,2.53
2018-10-01T05:34:48.280Z,2.50
2018-10-01T05:37:20.029Z,2.70
2018-10-01T05:39:51.702Z,2.40
2018-10-01T05:42:23.567Z,2.27
2018-10-01T05:44:56.033Z,2.12
2018-10-01T05:47:26.792Z,2.30
2018-10-01T05:49:58.112Z,2.40
2018-10-01T05:52:29.451Z,2.20
2018-10-01T05:55:00.211Z,2.93
2018-10-01T05:57:31.447Z,1.90
2018-10-01T06:00:13.812Z,1.87
2018-10-01T06:02:44.713Z,2.40
2018-10-01T06:05:15.649Z,2.23
2018-10-01T06:07:46.381Z,2.73
2018-10-01T06:10:17.078Z,2.90
2018-10-01T06:12:47.781Z,2.40
2018-10-01T06:15:22.559Z,2.27
2018-10-01T06:17:53.102Z,2.07
2018-10-01T06:20:41.720Z,2.30
2018-10-01T06:23:13.254Z,2.30
2018-10-01T06:25:44.805Z,1.90
2018-10-01T06:28:20.416Z,1.67
2018-10-01T06:30:51.122Z,2.15
2018-10-01T06:33:22.968Z,1.63
2018-10-01T06:35:53.656Z,2.10
2018-10-01T06:38:24.257Z,1.97
2018-10-01T06:40:55.092Z,1.97
2018-10-01T06:43:25.836Z,2.00
2018-10-01T06:45:56.611Z,2.03
2018-10-01T06:48:27.333Z,1.73
2018-10-01T06:50:58.715Z,1.70
2018-10-01T06:53:29.417Z,1.80
2018-10-01T06:58:46.532Z,1.77
2018-10-01T07:01:21.936Z,1.90
2018-10-01T07:03:52.881Z,1.60
2018-10-01T07:06:23.712Z,1.80
2018-10-01T07:09:08.595Z,1.97
2018-10-01T07:11:42.383Z,1.30
2018-10-01T07:14:28.472Z,1.30
2018-10-01T07:20:34.452Z,1.30
2018-10-01T07:26:28.629Z,1.40
2018-10-01T07:28:59.533Z,1.30
2018-10-01T07:31:29.880Z,1.50
2018-10-01T07:34:00.132Z,1.40
2018-10-01T07:36:30.440Z,1.47
2018-10-01T07:39:00.786Z,1.40
2018-10-01T07:41:31.391Z,1.20
2018-10-01T07:44:01.705Z,1.80
2018-10-01T07:46:32.097Z,1.20
2018-10-01T07:49:02.471Z,1.53
2018-10-01T07:51:32.837Z,1.30
2018-10-01T07:54:03.109Z,1.13
2018-10-01T07:56:33.557Z,1.20
2018-10-01T07:59:03.892Z,1.50
2018-10-01T08:01:34.232Z,1.10
2018-10-01T08:04:05.232Z,1.40
2018-10-01T08:06:35.513Z,1.33
2018-10-01T08:09:08.939Z,1.37
2018-10-01T08:11:39.241Z,0.90
2018-10-01T08:14:09.622Z,1.10
2018-10-01T08:16:39.982Z,1.20
2018-10-01T08:19:10.632Z,1.30
2018-10-01T08:21:41.009Z,1.13
2018-10-01T08:24:27.633Z,1.30
2018-10-01T08:26:58.091Z,0.93
2018-10-01T08:29:28.450Z,1.40
2018-10-01T08:31:58.844Z,1.20
2018-10-01T08:34:29.357Z,0.97
2018-10-01T08:36:59.730Z,1.20
2018-10-01T08:39:30.012Z,1.00
2018-10-01T08:42:00.391Z,0.80
2018-10-01T08:44:30.685Z,1.20
2018-10-01T08:47:00.960Z,1.00
2018-10-01T08:49:36.677Z,1.10
2018-10-01T08:52:16.377Z,1.03
2018-10-01T08:54:48.190Z,0.93
2018-10-01T08:57:18.437Z,0.73
2018-10-01T08:59:48.831Z,0.97
2018-10-01T09:02:19.252Z,1.00
2018-10-01T09:04:49.660Z,0.90
2018-10-01T09:07:20.136Z,0.97
2018-10-01T09:09:50.513Z,1.00
2018-10-01T09:12:20.934Z,0.97
2018-10-01T09:14:51.231Z,1.07
2018-10-01T09:17:21.693Z,0.90
2018-10-01T09:19:52.110Z,1.00
2018-10-01T09:22:22.640Z,0.93
2018-10-01T09:24:53.012Z,0.80
2018-10-01T09:27:23.553Z,0.90
2018-10-01T09:29:53.994Z,0.87
2018-10-01T09:32:24.374Z,0.87
2018-10-01T09:35:10.132Z,0.73
2018-10-01T09:37:40.547Z,0.97
2018-10-01T09:40:11.136Z,0.57
2018-10-01T09:42:41.562Z,0.70
2018-10-01T09:45:11.913Z,1.00
2018-10-01T09:47:42.412Z,0.67
2018-10-01T09:50:12.790Z,1.23
2018-10-01T09:52:43.216Z,0.90
2018-10-01T09:55:13.546Z,0.80
2018-10-01T09:57:43.987Z,0.60
2018-10-01T10:00:18.385Z,0.80
2018-10-01T10:02:48.694Z,0.80
2018-10-01T10:05:18.989Z,0.70
2018-10-01T10:07:49.479Z,0.97
2018-10-01T10:10:19.866Z,0.87
2018-10-01T10:12:50.439Z,0.90
2018-10-01T10:15:20.915Z,0.70
2018-10-01T10:17:51.267Z,0.97
2018-10-01T10:20:21.804Z,0.90
2018-10-01T10:22:52.206Z,0.90
2018-10-01T10:25:22.598Z,0.93
2018-10-01T10:27:53.050Z,0.87
2018-10-01T10:30:23.409Z,0.80
2018-10-01T10:32:53.735Z,0.57
2018-10-01T10:35:24.085Z,0.70
2018-10-01T10:37:54.727Z,0.40
2018-10-01T10:40:25.114Z,0.90
2018-10-01T10:42:55.561Z,0.40
2018-10-01T10:45:25.939Z,0.60
2018-10-01T10:47:56.407Z,0.73
2018-10-01T10:50:26.894Z,0.97
2018-10-01T10:52:57.323Z,0.77
2018-10-01T10:55:27.813Z,0.60
2018-10-01T10:57:58.622Z,0.30
2018-10-01T11:00:29.048Z,0.83
2018-10-01T11:02:59.580Z,0.60
2018-10-01T11:05:35.713Z,0.30
2018-10-01T11:08:06.359Z,0.50
2018-10-01T11:10:36.753Z,0.50
2018-10-01T11:13:07.198Z,0.60
2018-10-01T11:15:37.569Z,0.27
2018-10-01T11:18:08.080Z,0.27
2018-10-01T11:20:38.513Z,0.50
2018-10-01T11:23:09.055Z,0.33
2018-10-01T11:25:39.415Z,0.30
2018-10-01T11:28:09.839Z,0.50
2018-10-01T11:30:40.257Z,0.60
2018-10-01T11:33:11.049Z,0.80
2018-10-01T11:35:41.343Z,0.73
2018-10-01T11:38:11.971Z,1.00
2018-10-01T11:40:42.292Z,0.50
2018-10-01T11:43:12.636Z,1.20
2018-10-01T11:45:42.977Z,1.10
2018-10-01T11:48:13.374Z,0.93
2018-10-01T11:50:43.602Z,1.17
2018-10-01T11:53:14.051Z,0.80
2018-10-01T11:55:44.466Z,0.47
2018-10-01T11:58:15.181Z,0.90
2018-10-01T12:00:45.464Z,1.53
2018-10-01T12:03:15.919Z,1.07
2018-10-01T12:05:46.650Z,1.17
2018-10-01T12:08:17.031Z,1.13
2018-10-01T12:10:47.430Z,1.10
2018-10-01T12:13:17.759Z,1.30
2018-10-01T12:15:48.260Z,1.00
2018-10-01T12:18:18.550Z,1.07
2018-10-01T12:20:48.866Z,0.77
2018-10-01T12:23:19.369Z,1.00
2018-10-01T12:25:49.659Z,0.67
2018-10-01T12:28:20.070Z,1.00
2018-10-01T12:30:50.428Z,1.20
2018-10-01T12:33:21.260Z,0.70
2018-10-01T12:35:51.536Z,1.07
2018-10-01T12:38:23.143Z,0.70
2018-10-01T12:40:58.523Z,1.03
2018-10-01T12:43:28.892Z,0.93
2018-10-01T12:45:59.238Z,1.33
2018-10-01T12:48:29.566Z,0.93
2018-10-01T12:50:59.892Z,1.57
2018-10-01T12:53:30.221Z,1.30
2018-10-01T12:56:00.529Z,1.23
2018-10-01T12:58:30.886Z,1.07
2018-10-01T13:01:01.336Z,1.00
2018-10-01T13:03:31.630Z,1.23
2018-10-01T13:06:02.008Z,1.30
2018-10-01T13:08:32.631Z,1.33
2018-10-01T13:11:03.010Z,0.97
2018-10-01T13:13:33.456Z,0.70
2018-10-01T13:16:03.770Z,0.90
2018-10-01T13:18:34.169Z,0.60
2018-10-01T13:21:04.564Z,0.70
2018-10-01T13:23:34.860Z,0.50
2018-10-01T13:26:05.689Z,0.50
2018-10-01T13:28:36.012Z,0.70
2018-10-01T13:31:06.758Z,0.67
2018-10-01T13:33:37.043Z,0.30
2018-10-01T13:36:07.692Z,0.50
2018-10-01T13:38:38.328Z,0.97
2018-10-01T13:41:08.751Z,1.50
2018-10-01T13:43:39.010Z,0.90
2018-10-01T13:46:10.484Z,1.27
2018-10-01T13:48:40.832Z,0.90
2018-10-01T13:51:11.153Z,0.90
2018-10-01T13:53:41.420Z,1.00
2018-10-01T13:56:12.137Z,1.27
2018-10-01T13:58:42.555Z,1.37
2018-10-01T14:01:12.910Z,1.17
2018-10-01T14:03:43.250Z,0.97
2018-10-01T14:06:13.719Z,1.20
2018-10-01T14:08:44.101Z,0.87
2018-10-01T14:11:14.429Z,1.27
2018-10-01T14:13:51.431Z,1.03
2018-10-01T14:16:21.904Z,1.10
2018-10-01T14:18:52.186Z,1.50
2018-10-01T14:21:22.509Z,1.33
2018-10-01T14:23:53.143Z,1.07
2018-10-01T14:26:24.419Z,1.50
2018-10-01T14:28:54.870Z,1.40
2018-10-01T14:31:25.530Z,1.37
2018-10-01T14:33:56.058Z,1.40
2018-10-01T14:36:26.870Z,1.20
2018-10-01T14:38:57.472Z,1.03
2018-10-01T14:41:27.792Z,0.80
2018-10-01T14:43:58.079Z,1.00
2018-10-01T14:46:28.513Z,1.20
2018-10-01T14:48:58.786Z,0.90
2018-10-01T14:51:29.199Z,1.40
2018-10-01T14:53:59.600Z,0.73
2018-10-01T14:56:30.088Z,1.10
2018-10-01T14:59:00.365Z,0.73
2018-10-01T15:01:30.800Z,0.80
2018-10-01T15:04:01.175Z,1.00
2018-10-01T15:06:31.643Z,1.00
2018-10-01T15:09:02.050Z,0.77
2018-10-01T15:11:32.472Z,0.80
2018-10-01T15:14:02.876Z,1.00
2018-10-01T15:16:33.208Z,1.23
2018-10-01T15:19:04.529Z,1.22
2018-10-01T15:21:34.819Z,0.70
2018-10-01T15:24:05.127Z,0.90
2018-10-01T15:26:35.533Z,0.83
2018-10-01T15:29:05.872Z,0.70
2018-10-01T15:31:36.186Z,0.30
2018-10-01T15:34:06.460Z,0.50
2018-10-01T15:36:38.675Z,0.50
2018-10-01T15:39:10.725Z,0.33
2018-10-01T15:41:41.045Z,0.50
2018-10-01T15:44:11.337Z,0.33
2018-10-01T15:46:41.554Z,0.27
2018-10-01T15:49:11.819Z,0.20
2018-10-01T15:51:41.999Z,0.50
2018-10-01T15:54:12.303Z,0.30
2018-10-01T15:56:43.487Z,0.40
2018-10-01T15:59:18.971Z,0.50
2018-10-01T16:01:49.370Z,0.73
2018-10-01T16:04:19.745Z,0.63
2018-10-01T16:06:50.138Z,0.90
2018-10-01T16:09:20.581Z,0.40
2018-10-01T16:11:51.349Z,0.53
2018-10-01T16:14:21.685Z,0.50
2018-10-01T16:16:59.296Z,0.70
2018-10-01T16:19:30.324Z,0.77
2018-10-01T16:22:02.093Z,0.37
2018-10-01T16:27:11.548Z,0.87
2018-10-01T16:29:50.860Z,0.60
2018-10-01T16:32:28.379Z,0.70
2018-10-01T16:34:58.580Z,0.70
2018-10-01T16:37:28.934Z,0.93
2018-10-01T16:39:59.236Z,0.70
2018-10-01T16:45:05.011Z,0.80
2018-10-01T16:47:35.343Z,0.53
2018-10-01T16:50:06.709Z,0.60
2018-10-01T16:52:37.125Z,0.63
2018-10-01T16:55:08.171Z,0.60
2018-10-01T16:57:38.555Z,0.90
2018-10-01T17:00:13.515Z,0.70
2018-10-01T17:02:54.505Z,1.60
2018-10-01T17:05:24.941Z,1.47
2018-10-01T17:08:01.327Z,1.23
2018-10-01T17:10:31.644Z,0.90
2018-10-01T17:13:02.076Z,0.70
2018-10-01T17:15:32.391Z,0.80
2018-10-01T17:18:02.689Z,0.70
2018-10-01T17:20:33.364Z,1.07
2018-10-01T17:23:03.845Z,1.10
2018-10-01T17:25:34.404Z,0.77
2018-10-01T17:28:04.873Z,0.60
2018-10-01T17:30:35.310Z,0.90
2018-10-01T17:33:06.057Z,0.83
2018-10-01T17:35:37.546Z,0.83
2018-10-01T17:38:08.034Z,0.80
2018-10-01T17:40:39.119Z,0.63
2018-10-01T17:43:09.955Z,0.77
2018-10-01T17:45:40.416Z,1.10
2018-10-01T17:48:10.678Z,0.80
2018-10-01T17:51:03.086Z,0.90
2018-10-01T17:53:41.524Z,0.77
2018-10-01T17:56:12.276Z,1.00
2018-10-01T17:58:43.598Z,0.83
2018-10-01T18:01:14.571Z,0.93
2018-10-01T18:03:45.436Z,1.20
2018-10-01T18:06:16.534Z,1.03
2018-10-01T18:08:47.614Z,1.10
2018-10-01T18:11:18.577Z,0.80
2018-10-01T18:13:49.632Z,0.90
2018-10-01T18:16:20.532Z,0.77
2018-10-01T18:18:51.449Z,0.87
2018-10-01T18:21:22.479Z,1.33
2018-10-01T18:26:27.014Z,1.30
2018-10-01T18:28:57.936Z,0.80
2018-10-01T18:31:29.286Z,1.23
2018-10-01T18:34:00.499Z,0.80
2018-10-01T18:36:31.335Z,1.00
2018-10-01T18:39:02.682Z,1.40
2018-10-01T18:41:34.018Z,1.30
2018-10-01T18:44:07.240Z,1.37
2018-10-01T18:46:39.340Z,1.23
2018-10-01T18:49:11.542Z,1.10
2018-10-01T18:51:42.496Z,1.43
2018-10-01T18:54:13.761Z,1.27
2018-10-01T18:56:44.825Z,1.43
2018-10-01T18:59:15.797Z,1.20
2018-10-01T19:01:47.330Z,1.10
2018-10-01T19:04:18.305Z,1.15
2018-10-01T19:06:49.271Z,1.00
2018-10-01T19:09:20.208Z,1.00
2018-10-01T19:11:51.027Z,1.03
2018-10-01T19:14:22.080Z,1.00
2018-10-01T19:16:53.027Z,1.10
2018-10-01T19:19:24.030Z,1.07
2018-10-01T19:21:54.882Z,1.23
2018-10-01T19:24:26.334Z,1.10
2018-10-01T19:26:57.198Z,1.20
2018-10-01T19:29:28.141Z,1.30
2018-10-01T19:31:59.093Z,1.50
2018-10-01T19:34:30.066Z,1.10
2018-10-01T19:37:01.058Z,1.20
2018-10-01T19:39:31.994Z,1.17
2018-10-01T19:42:03.020Z,1.07
2018-10-01T19:44:34.373Z,1.83
2018-10-01T19:47:06.310Z,1.10
2018-10-01T19:49:37.325Z,1.10
2018-10-01T19:52:08.427Z,1.10
2018-10-01T19:54:39.397Z,1.20
2018-10-01T19:57:10.345Z,1.30
2018-10-01T19:59:41.213Z,1.20
2018-10-01T20:02:12.146Z,1.10
2018-10-01T20:04:43.105Z,1.05
2018-10-01T20:07:14.096Z,1.40
2018-10-01T20:09:46.455Z,1.43
2018-10-01T20:12:17.516Z,1.10
2018-10-01T20:14:48.513Z,1.10
2018-10-01T20:17:19.900Z,1.30
2018-10-01T20:19:51.124Z,1.10
2018-10-01T20:22:23.143Z,1.20
2018-10-01T20:24:54.134Z,1.43
2018-10-01T20:27:25.080Z,1.30
2018-10-01T20:29:56.005Z,1.60
2018-10-01T20:32:27.067Z,1.23
2018-10-01T20:34:57.967Z,1.02
2018-10-01T20:37:28.789Z,1.17
2018-10-01T20:39:59.903Z,0.93
2018-10-01T20:42:30.867Z,1.27
2018-10-01T20:45:01.957Z,1.20
2018-10-01T20:47:40.619Z,1.07
2018-10-01T20:50:11.546Z,1.37
2018-10-01T20:52:42.427Z,1.80
2018-10-01T20:55:12.796Z,1.20
2018-10-01T20:57:43.019Z,1.73
2018-10-01T21:00:13.291Z,1.90
2018-10-01T21:02:43.562Z,2.07
2018-10-01T21:05:13.868Z,1.90
2018-10-01T21:07:44.177Z,1.70
2018-10-01T21:10:14.581Z,1.60
2018-10-01T21:12:44.814Z,1.30
2018-10-01T21:15:15.211Z,1.73
2018-10-01T21:17:45.500Z,1.60
2018-10-01T21:20:15.868Z,1.47
2018-10-01T21:22:46.171Z,1.67
2018-10-01T21:25:16.518Z,1.30
2018-10-01T21:27:46.883Z,1.80
2018-10-01T21:30:17.164Z,1.40
2018-10-01T21:32:47.389Z,1.70
2018-10-01T21:35:17.639Z,1.60
2018-10-01T21:37:47.943Z,1.53
2018-10-01T21:40:18.722Z,1.40
2018-10-01T21:42:49.103Z,1.60
2018-10-01T21:45:19.787Z,1.40
2018-10-01T21:47:50.113Z,1.60
2018-10-01T21:50:20.368Z,1.70
2018-10-01T21:52:50.779Z,1.50
2018-10-01T21:55:21.106Z,1.83
2018-10-01T21:57:51.465Z,1.50
2018-10-01T22:00:21.908Z,1.80
2018-10-01T22:02:52.302Z,1.40
2018-10-01T22:05:22.591Z,1.23
2018-10-01T22:07:59.711Z,1.43
2018-10-01T22:10:29.947Z,1.10
2018-10-01T22:13:00.254Z,1.40
2018-10-01T22:15:35.592Z,1.80
2018-10-01T22:18:05.895Z,1.50
2018-10-01T22:20:36.254Z,1.67
2018-10-01T22:23:06.582Z,1.63
2018-10-01T22:25:36.828Z,1.50
2018-10-01T22:28:07.309Z,1.53
2018-10-01T22:30:37.659Z,1.57
2018-10-01T22:33:08.124Z,1.60
2018-10-01T22:35:38.414Z,1.60
2018-10-01T22:38:08.692Z,1.70
2018-10-01T22:40:39.040Z,1.40
2018-10-01T22:43:09.371Z,1.70
2018-10-01T22:45:39.689Z,1.70
2018-10-01T22:48:10.014Z,1.40
2018-10-01T22:50:40.294Z,1.70
2018-10-01T22:53:10.535Z,1.70
2018-10-01T22:55:40.809Z,1.57
2018-10-01T22:58:11.122Z,1.97
2018-10-01T23:00:41.361Z,1.77
2018-10-01T23:03:11.693Z,1.50
2018-10-01T23:05:47.789Z,1.73
2018-10-01T23:08:18.126Z,1.43
2018-10-01T23:10:48.430Z,1.60
2018-10-01T23:13:18.646Z,1.47
2018-10-01T23:15:48.927Z,1.50
2018-10-01T23:18:19.192Z,1.60
2018-10-01T23:20:49.511Z,1.63
2018-10-01T23:23:19.666Z,1.93
2018-10-01T23:25:49.845Z,1.73
2018-10-01T23:28:20.229Z,2.13
2018-10-01T23:30:50.753Z,1.43
2018-10-01T23:33:21.091Z,1.73
2018-10-01T23:35:51.408Z,1.80
2018-10-01T23:38:21.727Z,1.73
2018-10-01T23:40:52.002Z,2.02
2018-10-01T23:43:22.367Z,1.33
2018-10-01T23:45:52.681Z,1.60
2018-10-01T23:48:22.963Z,1.73
2018-10-01T23:50:53.132Z,1.73
2018-10-01T23:53:23.342Z,1.40
2018-10-01T23:55:53.624Z,1.83
2018-10-01T23:58:23.853Z,1.63
